sensor_id;sensor_type;location;lat;lon;timestamp;temperature;humidity
13268;DHT22;6702;47.068;15.458;2023-03-04T00:02:44;5.90;99.90
13268;DHT22;6702;47.068;15.458;2023-03-04T00:05:48;5.80;99.90
13268;DHT22;6702;47.068;15.458;2023-03-04T00:08:51;5.70;99.90
13268;DHT22;6702;47.068;15.458;2023-03-04T00:11:56;5.70;99.90
13268;DHT22;6702;47.068;15.458;2023-03-04T00:14:59;5.70;99.90
13268;DHT22;6702;47.068;15.458;2023-03-04T00:18:02;5.60;99.90
13268;DHT22;6702;47.068;15.458;2023-03-04T00:21:05;5.60;99.90
13268;DHT22;6702;47.068;15.458;2023-03-04T00:24:09;5.60;99.90
13268;DHT22;6702;47.068;15.458;2023-03-04T00:27:13;5.50;99.90
13268;DHT22;6702;47.068;15.458;2023-03-04T00:30:17;5.50;99.90
13268;DHT22;6702;47.068;15.458;2023-03-04T00:33:20;5.40;99.90
13268;DHT22;6702;47.068;15.458;2023-03-04T00:36:23;5.40;99.90
13268;DHT22;6702;47.068;15.458;2023-03-04T00:39:26;5.40;99.90
13268;DHT22;6702;47.068;15.458;2023-03-04T00:42:31;5.40;99.90
13268;DHT22;6702;47.068;15.458;2023-03-04T00:45:34;5.30;99.90
13268;DHT22;6702;47.068;15.458;2023-03-04T00:48:38;5.20;99.90
13268;DHT22;6702;47.068;15.458;2023-03-04T00:51:41;5.10;99.90
13268;DHT22;6702;47.068;15.458;2023-03-04T00:54:44;5.10;99.90
13268;DHT22;6702;47.068;15.458;2023-03-04T00:57:48;5.00;99.90
13268;DHT22;6702;47.068;15.458;2023-03-04T01:00:52;5.00;99.90
13268;DHT22;6702;47.068;15.458;2023-03-04T01:03:55;4.90;99.90
13268;DHT22;6702;47.068;15.458;2023-03-04T01:06:58;4.90;99.90
13268;DHT22;6702;47.068;15.458;2023-03-04T01:10:01;4.90;99.90
13268;DHT22;6702;47.068;15.458;2023-03-04T01:13:06;4.90;99.90
13268;DHT22;6702;47.068;15.458;2023-03-04T01:16:09;4.90;99.90
13268;DHT22;6702;47.068;15.458;2023-03-04T01:19:13;4.90;99.90
13268;DHT22;6702;47.068;15.458;2023-03-04T01:22:17;4.90;99.90
13268;DHT22;6702;47.068;15.458;2023-03-04T01:25:20;4.80;99.90
13268;DHT22;6702;47.068;15.458;2023-03-04T01:28:25;4.80;99.90
13268;DHT22;6702;47.068;15.458;2023-03-04T01:31:28;4.80;99.90
13268;DHT22;6702;47.068;15.458;2023-03-04T01:34:31;4.70;99.90
13268;DHT22;6702;47.068;15.458;2023-03-04T01:37:35;4.70;99.90
13268;DHT22;6702;47.068;15.458;2023-03-04T01:40:38;4.70;99.90
13268;DHT22;6702;47.068;15.458;2023-03-04T01:43:43;4.60;99.90
13268;DHT22;6702;47.068;15.458;2023-03-04T01:46:50;4.60;99.90
13268;DHT22;6702;47.068;15.458;2023-03-04T01:49:55;4.60;99.90
13268;DHT22;6702;47.068;15.458;2023-03-04T01:52:59;4.50;99.90
13268;DHT22;6702;47.068;15.458;2023-03-04T01:56:11;4.50;99.90
13268;DHT22;6702;47.068;15.458;2023-03-04T01:59:19;4.50;99.90
13268;DHT22;6702;47.068;15.458;2023-03-04T02:02:23;4.50;99.90
13268;DHT22;6702;47.068;15.458;2023-03-04T02:05:27;4.40;99.90
13268;DHT22;6702;47.068;15.458;2023-03-04T02:08:31;4.40;99.90
13268;DHT22;6702;47.068;15.458;2023-03-04T02:11:37;4.40;99.90
13268;DHT22;6702;47.068;15.458;2023-03-04T02:14:41;4.40;99.90
13268;DHT22;6702;47.068;15.458;2023-03-04T02:17:45;4.40;99.90
13268;DHT22;6702;47.068;15.458;2023-03-04T02:20:55;4.40;99.90
13268;DHT22;6702;47.068;15.458;2023-03-04T02:24:10;4.30;99.90
13268;DHT22;6702;47.068;15.458;2023-03-04T02:27:17;4.30;99.90
13268;DHT22;6702;47.068;15.458;2023-03-04T02:30:23;4.20;99.90
13268;DHT22;6702;47.068;15.458;2023-03-04T02:33:27;4.20;99.90
13268;DHT22;6702;47.068;15.458;2023-03-04T02:36:31;4.10;99.90
13268;DHT22;6702;47.068;15.458;2023-03-04T02:39:38;4.10;99.90
13268;DHT22;6702;47.068;15.458;2023-03-04T02:42:44;4.10;99.90
13268;DHT22;6702;47.068;15.458;2023-03-04T02:45:49;4.00;99.90
13268;DHT22;6702;47.068;15.458;2023-03-04T02:48:52;4.00;99.90
13268;DHT22;6702;47.068;15.458;2023-03-04T02:52:02;4.00;99.90
13268;DHT22;6702;47.068;15.458;2023-03-04T02:55:06;4.00;99.90
13268;DHT22;6702;47.068;15.458;2023-03-04T02:58:12;4.00;99.90
13268;DHT22;6702;47.068;15.458;2023-03-04T03:01:15;3.90;99.90
13268;DHT22;6702;47.068;15.458;2023-03-04T03:04:19;3.90;99.90
13268;DHT22;6702;47.068;15.458;2023-03-04T03:07:23;3.90;99.90
13268;DHT22;6702;47.068;15.458;2023-03-04T03:10:26;3.90;99.90
13268;DHT22;6702;47.068;15.458;2023-03-04T03:13:31;3.90;99.90
13268;DHT22;6702;47.068;15.458;2023-03-04T03:16:34;3.80;99.90
13268;DHT22;6702;47.068;15.458;2023-03-04T03:19:37;3.80;99.90
13268;DHT22;6702;47.068;15.458;2023-03-04T03:22:41;3.90;99.90
13268;DHT22;6702;47.068;15.458;2023-03-04T03:25:44;3.80;99.90
13268;DHT22;6702;47.068;15.458;2023-03-04T03:28:49;3.80;99.90
13268;DHT22;6702;47.068;15.458;2023-03-04T03:31:52;3.80;99.90
13268;DHT22;6702;47.068;15.458;2023-03-04T03:34:55;3.70;99.90
13268;DHT22;6702;47.068;15.458;2023-03-04T03:37:59;3.70;99.90
13268;DHT22;6702;47.068;15.458;2023-03-04T03:41:02;3.70;99.90
13268;DHT22;6702;47.068;15.458;2023-03-04T03:44:07;3.70;99.90
13268;DHT22;6702;47.068;15.458;2023-03-04T03:47:10;3.60;99.90
13268;DHT22;6702;47.068;15.458;2023-03-04T03:50:13;3.60;99.90
13268;DHT22;6702;47.068;15.458;2023-03-04T03:53:16;3.50;99.90
13268;DHT22;6702;47.068;15.458;2023-03-04T03:56:20;3.60;99.90
13268;DHT22;6702;47.068;15.458;2023-03-04T03:59:24;3.50;99.90
13268;DHT22;6702;47.068;15.458;2023-03-04T04:02:27;3.50;99.90
13268;DHT22;6702;47.068;15.458;2023-03-04T04:05:31;3.50;99.90
13268;DHT22;6702;47.068;15.458;2023-03-04T04:08:34;3.50;99.90
13268;DHT22;6702;47.068;15.458;2023-03-04T04:11:37;3.50;99.90
13268;DHT22;6702;47.068;15.458;2023-03-04T04:14:43;3.50;99.90
13268;DHT22;6702;47.068;15.458;2023-03-04T04:17:46;3.50;99.90
13268;DHT22;6702;47.068;15.458;2023-03-04T04:20:51;3.50;99.90
13268;DHT22;6702;47.068;15.458;2023-03-04T04:23:54;3.40;99.90
13268;DHT22;6702;47.068;15.458;2023-03-04T04:26:57;3.50;99.90
13268;DHT22;6702;47.068;15.458;2023-03-04T04:30:02;3.50;99.90
13268;DHT22;6702;47.068;15.458;2023-03-04T04:33:05;3.50;99.90
13268;DHT22;6702;47.068;15.458;2023-03-04T04:36:12;3.50;99.90
13268;DHT22;6702;47.068;15.458;2023-03-04T04:39:17;3.40;99.90
13268;DHT22;6702;47.068;15.458;2023-03-04T04:42:20;3.30;99.90
13268;DHT22;6702;47.068;15.458;2023-03-04T04:45:25;3.20;99.90
13268;DHT22;6702;47.068;15.458;2023-03-04T04:48:28;3.20;99.90
13268;DHT22;6702;47.068;15.458;2023-03-04T04:51:32;3.10;99.90
13268;DHT22;6702;47.068;15.458;2023-03-04T04:54:36;3.00;99.90
13268;DHT22;6702;47.068;15.458;2023-03-04T04:57:39;2.90;99.90
13268;DHT22;6702;47.068;15.458;2023-03-04T05:00:43;2.90;99.90
13268;DHT22;6702;47.068;15.458;2023-03-04T05:03:47;2.90;99.90
13268;DHT22;6702;47.068;15.458;2023-03-04T05:06:51;2.90;99.90
13268;DHT22;6702;47.068;15.458;2023-03-04T05:09:54;2.90;99.90
13268;DHT22;6702;47.068;15.458;2023-03-04T05:12:57;2.90;99.90
13268;DHT22;6702;47.068;15.458;2023-03-04T05:16:02;2.90;99.90
13268;DHT22;6702;47.068;15.458;2023-03-04T05:19:06;2.90;99.90
13268;DHT22;6702;47.068;15.458;2023-03-04T05:22:09;2.90;99.90
13268;DHT22;6702;47.068;15.458;2023-03-04T05:25:12;2.90;99.90
13268;DHT22;6702;47.068;15.458;2023-03-04T05:28:16;3.00;99.90
13268;DHT22;6702;47.068;15.458;2023-03-04T05:31:20;3.00;99.90
13268;DHT22;6702;47.068;15.458;2023-03-04T05:34:24;2.90;99.90
13268;DHT22;6702;47.068;15.458;2023-03-04T05:37:27;2.90;99.90
13268;DHT22;6702;47.068;15.458;2023-03-04T05:40:30;2.90;99.90
13268;DHT22;6702;47.068;15.458;2023-03-04T05:43:34;2.90;99.90
13268;DHT22;6702;47.068;15.458;2023-03-04T05:46:40;2.90;99.90
13268;DHT22;6702;47.068;15.458;2023-03-04T05:49:43;2.90;99.90
13268;DHT22;6702;47.068;15.458;2023-03-04T05:52:47;2.90;99.90
13268;DHT22;6702;47.068;15.458;2023-03-04T05:55:50;2.80;99.90
13268;DHT22;6702;47.068;15.458;2023-03-04T05:58:56;2.80;99.90
13268;DHT22;6702;47.068;15.458;2023-03-04T06:02:00;2.80;99.90
13268;DHT22;6702;47.068;15.458;2023-03-04T06:05:04;2.80;99.90
13268;DHT22;6702;47.068;15.458;2023-03-04T06:08:08;2.80;99.90
13268;DHT22;6702;47.068;15.458;2023-03-04T06:11:12;2.80;99.90
13268;DHT22;6702;47.068;15.458;2023-03-04T06:14:15;2.80;99.90
13268;DHT22;6702;47.068;15.458;2023-03-04T06:17:20;2.80;99.90
13268;DHT22;6702;47.068;15.458;2023-03-04T06:20:23;2.80;99.90
13268;DHT22;6702;47.068;15.458;2023-03-04T06:23:27;2.80;99.90
13268;DHT22;6702;47.068;15.458;2023-03-04T06:26:30;2.80;99.90
13268;DHT22;6702;47.068;15.458;2023-03-04T06:29:33;2.70;99.90
13268;DHT22;6702;47.068;15.458;2023-03-04T06:32:38;2.70;99.90
13268;DHT22;6702;47.068;15.458;2023-03-04T06:35:45;2.80;99.90
13268;DHT22;6702;47.068;15.458;2023-03-04T06:38:48;2.80;99.90
13268;DHT22;6702;47.068;15.458;2023-03-04T06:41:51;2.90;99.90
13268;DHT22;6702;47.068;15.458;2023-03-04T06:44:54;3.00;99.90
13268;DHT22;6702;47.068;15.458;2023-03-04T06:47:59;3.20;99.90
13268;DHT22;6702;47.068;15.458;2023-03-04T06:51:06;3.30;99.90
13268;DHT22;6702;47.068;15.458;2023-03-04T06:54:09;3.40;99.90
13268;DHT22;6702;47.068;15.458;2023-03-04T06:57:12;3.50;99.90
13268;DHT22;6702;47.068;15.458;2023-03-04T07:00:17;3.70;99.90
13268;DHT22;6702;47.068;15.458;2023-03-04T07:03:21;3.80;99.90
13268;DHT22;6702;47.068;15.458;2023-03-04T07:06:26;3.90;99.90
13268;DHT22;6702;47.068;15.458;2023-03-04T07:09:30;4.00;99.90
13268;DHT22;6702;47.068;15.458;2023-03-04T07:12:33;4.20;99.90
13268;DHT22;6702;47.068;15.458;2023-03-04T07:15:36;4.30;99.90
13268;DHT22;6702;47.068;15.458;2023-03-04T07:18:41;4.40;99.90
13268;DHT22;6702;47.068;15.458;2023-03-04T07:21:44;4.50;99.90
13268;DHT22;6702;47.068;15.458;2023-03-04T07:24:47;4.60;99.90
13268;DHT22;6702;47.068;15.458;2023-03-04T07:27:50;4.70;99.90
13268;DHT22;6702;47.068;15.458;2023-03-04T07:30:54;4.70;99.90
13268;DHT22;6702;47.068;15.458;2023-03-04T07:34:00;4.80;99.90
13268;DHT22;6702;47.068;15.458;2023-03-04T07:37:04;4.90;99.90
13268;DHT22;6702;47.068;15.458;2023-03-04T07:40:08;4.70;99.90
13268;DHT22;6702;47.068;15.458;2023-03-04T07:43:12;4.70;99.90
13268;DHT22;6702;47.068;15.458;2023-03-04T07:46:16;4.70;99.90
13268;DHT22;6702;47.068;15.458;2023-03-04T07:49:21;4.90;99.90
13268;DHT22;6702;47.068;15.458;2023-03-04T07:52:24;5.00;99.90
13268;DHT22;6702;47.068;15.458;2023-03-04T07:55:27;5.20;99.90
13268;DHT22;6702;47.068;15.458;2023-03-04T07:58:32;5.30;99.90
13268;DHT22;6702;47.068;15.458;2023-03-04T08:01:36;5.50;99.90
13268;DHT22;6702;47.068;15.458;2023-03-04T08:04:41;5.80;99.90
13268;DHT22;6702;47.068;15.458;2023-03-04T08:07:44;6.40;99.90
13268;DHT22;6702;47.068;15.458;2023-03-04T08:10:47;6.60;99.90
13268;DHT22;6702;47.068;15.458;2023-03-04T08:13:50;6.70;99.90
13268;DHT22;6702;47.068;15.458;2023-03-04T08:16:54;6.80;99.90
13268;DHT22;6702;47.068;15.458;2023-03-04T08:19:59;7.00;99.90
13268;DHT22;6702;47.068;15.458;2023-03-04T08:23:02;7.30;99.90
13268;DHT22;6702;47.068;15.458;2023-03-04T08:26:07;7.50;99.90
13268;DHT22;6702;47.068;15.458;2023-03-04T08:29:13;7.80;99.50
13268;DHT22;6702;47.068;15.458;2023-03-04T08:32:16;8.10;98.40
13268;DHT22;6702;47.068;15.458;2023-03-04T08:35:21;8.50;98.00
13268;DHT22;6702;47.068;15.458;2023-03-04T08:38:25;8.90;97.40
13268;DHT22;6702;47.068;15.458;2023-03-04T08:41:28;11.10;96.10
13268;DHT22;6702;47.068;15.458;2023-03-04T08:44:31;15.50;89.50
13268;DHT22;6702;47.068;15.458;2023-03-04T08:47:34;19.10;60.70
13268;DHT22;6702;47.068;15.458;2023-03-04T08:50:39;22.00;49.00
13268;DHT22;6702;47.068;15.458;2023-03-04T08:53:42;23.90;41.60
13268;DHT22;6702;47.068;15.458;2023-03-04T08:56:46;25.70;35.70
13268;DHT22;6702;47.068;15.458;2023-03-04T08:59:49;27.70;31.60
13268;DHT22;6702;47.068;15.458;2023-03-04T09:02:52;29.40;28.00
13268;DHT22;6702;47.068;15.458;2023-03-04T09:05:57;30.20;26.50
13268;DHT22;6702;47.068;15.458;2023-03-04T09:09:01;30.30;24.90
13268;DHT22;6702;47.068;15.458;2023-03-04T09:12:05;31.70;24.00
13268;DHT22;6702;47.068;15.458;2023-03-04T09:15:09;33.00;22.40
13268;DHT22;6702;47.068;15.458;2023-03-04T09:18:13;33.80;21.10
13268;DHT22;6702;47.068;15.458;2023-03-04T09:21:18;34.20;20.40
13268;DHT22;6702;47.068;15.458;2023-03-04T09:24:21;34.30;20.00
13268;DHT22;6702;47.068;15.458;2023-03-04T09:27:24;34.10;20.30
13268;DHT22;6702;47.068;15.458;2023-03-04T09:30:28;34.40;19.80
13268;DHT22;6702;47.068;15.458;2023-03-04T09:33:31;34.10;19.60
13268;DHT22;6702;47.068;15.458;2023-03-04T09:36:36;35.50;19.10
13268;DHT22;6702;47.068;15.458;2023-03-04T09:39:39;36.40;18.40
13268;DHT22;6702;47.068;15.458;2023-03-04T09:42:45;34.50;18.60
13268;DHT22;6702;47.068;15.458;2023-03-04T09:45:52;35.10;18.70
13268;DHT22;6702;47.068;15.458;2023-03-04T09:48:56;36.10;18.30
13268;DHT22;6702;47.068;15.458;2023-03-04T09:52:06;36.50;18.10
13268;DHT22;6702;47.068;15.458;2023-03-04T09:55:17;36.10;17.70
13268;DHT22;6702;47.068;15.458;2023-03-04T09:58:30;36.30;18.30
13268;DHT22;6702;47.068;15.458;2023-03-04T10:01:43;37.50;17.50
13268;DHT22;6702;47.068;15.458;2023-03-04T10:04:50;36.70;17.40
13268;DHT22;6702;47.068;15.458;2023-03-04T10:07:57;37.50;17.60
13268;DHT22;6702;47.068;15.458;2023-03-04T10:11:03;38.70;16.50
13268;DHT22;6702;47.068;15.458;2023-03-04T10:14:20;38.70;16.00
13268;DHT22;6702;47.068;15.458;2023-03-04T10:17:32;40.10;15.30
13268;DHT22;6702;47.068;15.458;2023-03-04T10:20:46;39.80;14.80
13268;DHT22;6702;47.068;15.458;2023-03-04T10:23:53;40.30;14.60
13268;DHT22;6702;47.068;15.458;2023-03-04T10:27:03;40.90;14.30
13268;DHT22;6702;47.068;15.458;2023-03-04T10:30:17;41.00;13.80
13268;DHT22;6702;47.068;15.458;2023-03-04T10:33:25;39.90;13.90
13268;DHT22;6702;47.068;15.458;2023-03-04T10:36:53;39.60;14.10
13268;DHT22;6702;47.068;15.458;2023-03-04T10:40:00;37.80;14.90
13268;DHT22;6702;47.068;15.458;2023-03-04T10:43:04;37.30;14.00
13268;DHT22;6702;47.068;15.458;2023-03-04T10:46:10;37.30;14.40
13268;DHT22;6702;47.068;15.458;2023-03-04T10:49:14;38.50;13.70
13268;DHT22;6702;47.068;15.458;2023-03-04T10:52:25;40.30;13.20
13268;DHT22;6702;47.068;15.458;2023-03-04T10:55:42;41.80;12.10
13268;DHT22;6702;47.068;15.458;2023-03-04T10:58:45;41.10;12.30
13268;DHT22;6702;47.068;15.458;2023-03-04T11:01:49;41.00;12.70
13268;DHT22;6702;47.068;15.458;2023-03-04T11:04:55;41.40;12.10
13268;DHT22;6702;47.068;15.458;2023-03-04T11:07:59;41.60;11.50
13268;DHT22;6702;47.068;15.458;2023-03-04T11:11:21;41.80;11.70
13268;DHT22;6702;47.068;15.458;2023-03-04T11:14:27;43.10;11.20
13268;DHT22;6702;47.068;15.458;2023-03-04T11:17:42;42.70;10.80
13268;DHT22;6702;47.068;15.458;2023-03-04T11:20:48;40.90;11.80
13268;DHT22;6702;47.068;15.458;2023-03-04T11:23:56;41.50;11.50
13268;DHT22;6702;47.068;15.458;2023-03-04T11:27:04;41.30;11.40
13268;DHT22;6702;47.068;15.458;2023-03-04T11:30:28;41.40;11.40
13268;DHT22;6702;47.068;15.458;2023-03-04T11:33:39;40.90;11.40
13268;DHT22;6702;47.068;15.458;2023-03-04T11:36:53;39.40;11.50
13268;DHT22;6702;47.068;15.458;2023-03-04T11:40:01;40.00;11.40
13268;DHT22;6702;47.068;15.458;2023-03-04T11:43:12;40.30;11.00
13268;DHT22;6702;47.068;15.458;2023-03-04T11:46:42;40.60;11.30
13268;DHT22;6702;47.068;15.458;2023-03-04T11:50:15;41.40;11.00
13268;DHT22;6702;47.068;15.458;2023-03-04T11:53:38;42.20;10.60
13268;DHT22;6702;47.068;15.458;2023-03-04T11:56:44;43.60;9.90
13268;DHT22;6702;47.068;15.458;2023-03-04T12:00:01;43.90;9.40
13268;DHT22;6702;47.068;15.458;2023-03-04T12:03:23;43.40;9.40
13268;DHT22;6702;47.068;15.458;2023-03-04T12:06:37;43.50;9.70
13268;DHT22;6702;47.068;15.458;2023-03-04T12:09:54;42.90;9.30
13268;DHT22;6702;47.068;15.458;2023-03-04T12:13:22;42.00;9.80
13268;DHT22;6702;47.068;15.458;2023-03-04T12:17:10;42.00;10.00
13268;DHT22;6702;47.068;15.458;2023-03-04T12:20:33;43.10;9.20
13268;DHT22;6702;47.068;15.458;2023-03-04T12:24:12;43.60;9.10
13268;DHT22;6702;47.068;15.458;2023-03-04T12:27:25;43.60;9.40
13268;DHT22;6702;47.068;15.458;2023-03-04T12:30:49;41.30;10.10
13268;DHT22;6702;47.068;15.458;2023-03-04T12:34:23;41.70;10.60
13268;DHT22;6702;47.068;15.458;2023-03-04T12:37:48;42.10;10.20
13268;DHT22;6702;47.068;15.458;2023-03-04T12:41:05;42.00;10.10
13268;DHT22;6702;47.068;15.458;2023-03-04T12:44:15;42.80;10.00
13268;DHT22;6702;47.068;15.458;2023-03-04T12:47:27;43.00;9.60
13268;DHT22;6702;47.068;15.458;2023-03-04T12:50:40;43.20;9.60
13268;DHT22;6702;47.068;15.458;2023-03-04T12:53:53;44.10;9.20
13268;DHT22;6702;47.068;15.458;2023-03-04T12:57:00;43.90;9.20
13268;DHT22;6702;47.068;15.458;2023-03-04T13:00:15;43.80;8.90
13268;DHT22;6702;47.068;15.458;2023-03-04T13:03:26;43.70;8.80
13268;DHT22;6702;47.068;15.458;2023-03-04T13:06:42;42.20;9.40
13268;DHT22;6702;47.068;15.458;2023-03-04T13:09:51;42.70;9.30
13268;DHT22;6702;47.068;15.458;2023-03-04T13:12:57;43.50;9.00
13268;DHT22;6702;47.068;15.458;2023-03-04T13:16:02;44.20;8.70
13268;DHT22;6702;47.068;15.458;2023-03-04T13:22:46;43.70;8.60
13268;DHT22;6702;47.068;15.458;2023-03-04T13:26:20;43.50;8.70
13268;DHT22;6702;47.068;15.458;2023-03-04T13:29:32;42.20;8.80
13268;DHT22;6702;47.068;15.458;2023-03-04T13:32:37;42.30;9.40
13268;DHT22;6702;47.068;15.458;2023-03-04T13:35:49;40.80;9.70
13268;DHT22;6702;47.068;15.458;2023-03-04T13:38:59;40.90;10.20
13268;DHT22;6702;47.068;15.458;2023-03-04T13:45:30;39.40;11.20
13268;DHT22;6702;47.068;15.458;2023-03-04T13:48:34;39.70;10.80
13268;DHT22;6702;47.068;15.458;2023-03-04T13:51:40;38.60;11.50
13268;DHT22;6702;47.068;15.458;2023-03-04T13:54:47;36.80;12.40
13268;DHT22;6702;47.068;15.458;2023-03-04T13:57:50;34.40;13.30
13268;DHT22;6702;47.068;15.458;2023-03-04T14:00:55;32.30;14.80
13268;DHT22;6702;47.068;15.458;2023-03-04T14:03:58;30.50;16.00
13268;DHT22;6702;47.068;15.458;2023-03-04T14:07:15;28.40;17.90
13268;DHT22;6702;47.068;15.458;2023-03-04T14:10:23;26.00;19.80
13268;DHT22;6702;47.068;15.458;2023-03-04T14:13:26;23.80;21.70
13268;DHT22;6702;47.068;15.458;2023-03-04T14:16:33;22.70;22.70
13268;DHT22;6702;47.068;15.458;2023-03-04T14:19:43;21.80;23.80
13268;DHT22;6702;47.068;15.458;2023-03-04T14:22:46;20.80;25.20
13268;DHT22;6702;47.068;15.458;2023-03-04T14:25:51;20.20;26.10
13268;DHT22;6702;47.068;15.458;2023-03-04T14:28:54;19.90;26.50
13268;DHT22;6702;47.068;15.458;2023-03-04T14:32:00;19.50;27.10
13268;DHT22;6702;47.068;15.458;2023-03-04T14:35:06;19.10;27.10
13268;DHT22;6702;47.068;15.458;2023-03-04T14:38:17;18.60;27.20
13268;DHT22;6702;47.068;15.458;2023-03-04T14:41:25;18.50;27.50
13268;DHT22;6702;47.068;15.458;2023-03-04T14:44:31;18.00;28.00
13268;DHT22;6702;47.068;15.458;2023-03-04T14:47:40;17.70;28.80
13268;DHT22;6702;47.068;15.458;2023-03-04T14:50:50;17.70;28.90
13268;DHT22;6702;47.068;15.458;2023-03-04T14:53:55;17.50;29.10
13268;DHT22;6702;47.068;15.458;2023-03-04T14:57:13;17.20;29.20
13268;DHT22;6702;47.068;15.458;2023-03-04T15:00:28;17.20;29.30
13268;DHT22;6702;47.068;15.458;2023-03-04T15:03:33;17.10;29.30
13268;DHT22;6702;47.068;15.458;2023-03-04T15:06:38;17.20;29.30
13268;DHT22;6702;47.068;15.458;2023-03-04T15:09:49;17.00;29.70
13268;DHT22;6702;47.068;15.458;2023-03-04T15:12:57;16.90;30.00
13268;DHT22;6702;47.068;15.458;2023-03-04T15:16:02;16.70;30.20
13268;DHT22;6702;47.068;15.458;2023-03-04T15:19:24;16.70;30.50
13268;DHT22;6702;47.068;15.458;2023-03-04T15:22:27;16.30;30.90
13268;DHT22;6702;47.068;15.458;2023-03-04T15:25:32;16.10;31.40
13268;DHT22;6702;47.068;15.458;2023-03-04T15:28:39;16.10;31.30
13268;DHT22;6702;47.068;15.458;2023-03-04T15:31:43;16.10;31.10
13268;DHT22;6702;47.068;15.458;2023-03-04T15:34:49;16.10;31.30
13268;DHT22;6702;47.068;15.458;2023-03-04T15:37:54;16.20;31.70
13268;DHT22;6702;47.068;15.458;2023-03-04T15:40:59;16.20;31.80
13268;DHT22;6702;47.068;15.458;2023-03-04T15:44:08;16.20;31.60
13268;DHT22;6702;47.068;15.458;2023-03-04T15:47:13;16.10;31.40
13268;DHT22;6702;47.068;15.458;2023-03-04T15:50:18;16.10;31.60
13268;DHT22;6702;47.068;15.458;2023-03-04T15:53:26;16.20;31.80
13268;DHT22;6702;47.068;15.458;2023-03-04T15:56:33;16.20;31.90
13268;DHT22;6702;47.068;15.458;2023-03-04T15:59:37;16.10;31.90
13268;DHT22;6702;47.068;15.458;2023-03-04T16:02:44;16.10;32.00
13268;DHT22;6702;47.068;15.458;2023-03-04T16:05:50;16.10;32.40
13268;DHT22;6702;47.068;15.458;2023-03-04T16:08:55;16.00;32.50
13268;DHT22;6702;47.068;15.458;2023-03-04T16:12:00;16.00;32.60
13268;DHT22;6702;47.068;15.458;2023-03-04T16:15:12;16.00;31.10
13268;DHT22;6702;47.068;15.458;2023-03-04T16:18:16;15.90;28.60
13268;DHT22;6702;47.068;15.458;2023-03-04T16:21:21;15.80;27.90
13268;DHT22;6702;47.068;15.458;2023-03-04T16:24:25;15.70;28.30
13268;DHT22;6702;47.068;15.458;2023-03-04T16:27:30;15.60;27.00
13268;DHT22;6702;47.068;15.458;2023-03-04T16:30:35;15.50;27.00
13268;DHT22;6702;47.068;15.458;2023-03-04T16:33:40;15.40;27.00
13268;DHT22;6702;47.068;15.458;2023-03-04T16:36:44;15.30;27.20
13268;DHT22;6702;47.068;15.458;2023-03-04T16:39:49;15.20;27.90
13268;DHT22;6702;47.068;15.458;2023-03-04T16:42:53;15.10;27.70
13268;DHT22;6702;47.068;15.458;2023-03-04T16:45:58;15.00;27.30
13268;DHT22;6702;47.068;15.458;2023-03-04T16:49:02;14.90;26.90
13268;DHT22;6702;47.068;15.458;2023-03-04T16:52:16;14.80;27.70
13268;DHT22;6702;47.068;15.458;2023-03-04T16:55:24;14.60;27.30
13268;DHT22;6702;47.068;15.458;2023-03-04T16:58:27;14.60;27.40
13268;DHT22;6702;47.068;15.458;2023-03-04T17:01:32;14.40;27.40
13268;DHT22;6702;47.068;15.458;2023-03-04T17:04:37;14.40;27.60
13268;DHT22;6702;47.068;15.458;2023-03-04T17:07:41;14.20;27.70
13268;DHT22;6702;47.068;15.458;2023-03-04T17:10:45;14.10;28.10
13268;DHT22;6702;47.068;15.458;2023-03-04T17:13:50;14.00;28.60
13268;DHT22;6702;47.068;15.458;2023-03-04T17:16:56;13.90;28.60
13268;DHT22;6702;47.068;15.458;2023-03-04T17:19:59;13.80;28.90
13268;DHT22;6702;47.068;15.458;2023-03-04T17:23:07;13.70;28.20
13268;DHT22;6702;47.068;15.458;2023-03-04T17:26:12;13.60;28.70
13268;DHT22;6702;47.068;15.458;2023-03-04T17:29:17;13.50;29.30
13268;DHT22;6702;47.068;15.458;2023-03-04T17:32:22;13.40;29.90
13268;DHT22;6702;47.068;15.458;2023-03-04T17:35:27;13.20;30.30
13268;DHT22;6702;47.068;15.458;2023-03-04T17:38:31;13.10;31.10
13268;DHT22;6702;47.068;15.458;2023-03-04T17:41:37;13.00;31.30
13268;DHT22;6702;47.068;15.458;2023-03-04T17:44:41;13.00;32.70
13268;DHT22;6702;47.068;15.458;2023-03-04T17:47:48;12.90;34.00
13268;DHT22;6702;47.068;15.458;2023-03-04T17:50:52;12.90;34.20
13268;DHT22;6702;47.068;15.458;2023-03-04T17:53:57;12.80;32.90
13268;DHT22;6702;47.068;15.458;2023-03-04T17:57:03;12.70;33.40
13268;DHT22;6702;47.068;15.458;2023-03-04T18:00:09;12.60;34.00
13268;DHT22;6702;47.068;15.458;2023-03-04T18:03:16;12.50;34.30
13268;DHT22;6702;47.068;15.458;2023-03-04T18:06:22;12.50;33.80
13268;DHT22;6702;47.068;15.458;2023-03-04T18:09:27;12.40;34.30
13268;DHT22;6702;47.068;15.458;2023-03-04T18:12:32;12.30;34.20
13268;DHT22;6702;47.068;15.458;2023-03-04T18:15:39;12.20;34.60
13268;DHT22;6702;47.068;15.458;2023-03-04T18:18:47;12.00;34.80
13268;DHT22;6702;47.068;15.458;2023-03-04T18:21:51;11.90;34.50
13268;DHT22;6702;47.068;15.458;2023-03-04T18:24:56;11.80;33.80
13268;DHT22;6702;47.068;15.458;2023-03-04T18:28:02;11.80;34.90
13268;DHT22;6702;47.068;15.458;2023-03-04T18:31:08;11.70;34.50
13268;DHT22;6702;47.068;15.458;2023-03-04T18:34:15;11.80;35.40
13268;DHT22;6702;47.068;15.458;2023-03-04T18:37:20;11.70;34.90
13268;DHT22;6702;47.068;15.458;2023-03-04T18:40:26;11.60;35.70
13268;DHT22;6702;47.068;15.458;2023-03-04T18:43:32;11.50;35.00
13268;DHT22;6702;47.068;15.458;2023-03-04T18:46:41;11.50;34.70
13268;DHT22;6702;47.068;15.458;2023-03-04T18:49:49;11.40;35.50
13268;DHT22;6702;47.068;15.458;2023-03-04T18:52:54;11.40;34.80
13268;DHT22;6702;47.068;15.458;2023-03-04T18:56:01;11.30;34.30
13268;DHT22;6702;47.068;15.458;2023-03-04T18:59:12;11.20;34.40
13268;DHT22;6702;47.068;15.458;2023-03-04T19:02:22;11.20;34.80
13268;DHT22;6702;47.068;15.458;2023-03-04T19:05:32;11.00;35.20
13268;DHT22;6702;47.068;15.458;2023-03-04T19:08:38;10.90;35.10
13268;DHT22;6702;47.068;15.458;2023-03-04T19:11:42;10.80;35.60
13268;DHT22;6702;47.068;15.458;2023-03-04T19:14:47;10.70;35.60
13268;DHT22;6702;47.068;15.458;2023-03-04T19:17:53;10.60;35.40
13268;DHT22;6702;47.068;15.458;2023-03-04T19:21:00;10.70;35.70
13268;DHT22;6702;47.068;15.458;2023-03-04T19:24:07;10.70;35.40
13268;DHT22;6702;47.068;15.458;2023-03-04T19:27:12;10.70;34.80
13268;DHT22;6702;47.068;15.458;2023-03-04T19:30:17;10.80;34.00
13268;DHT22;6702;47.068;15.458;2023-03-04T19:33:23;10.70;33.90
13268;DHT22;6702;47.068;15.458;2023-03-04T19:36:29;10.70;32.90
13268;DHT22;6702;47.068;15.458;2023-03-04T19:39:34;10.70;32.70
13268;DHT22;6702;47.068;15.458;2023-03-04T19:42:38;10.70;32.30
13268;DHT22;6702;47.068;15.458;2023-03-04T19:45:51;10.70;32.10
13268;DHT22;6702;47.068;15.458;2023-03-04T19:48:57;10.70;31.50
13268;DHT22;6702;47.068;15.458;2023-03-04T19:52:03;10.70;31.10
13268;DHT22;6702;47.068;15.458;2023-03-04T19:55:09;10.70;31.00